AirNav   Everest Fuels
 
 1672 users online  

CT85 Roberts Farm Airport
East Windsor, Connecticut, USA

GOING TO EAST WINDSOR?


FAA INFORMATION EFFECTIVE 01 DECEMBER 2022

Location

FAA Identifier: CT85
Lat/Long: 41-53-23.3520N 072-36-54.3230W
41-53.389200N 072-36.905383W
41.8898200,-72.6150897
(estimated)
Elevation: 37 ft. / 11 m (estimated)
Variation: 14W (1985)
From city: 4 miles SW of EAST WINDSOR, CT
Time zone: UTC -5 (UTC -4 during Daylight Saving Time)
Zip code: 06088

Airport Operations

Airport use: Private use. Permission required prior to landing
Activation date: 10/1985
Control tower: no
ARTCC: BOSTON CENTER
FSS: BRIDGEPORT FLIGHT SERVICE STATION
Attendance: UNATNDD
Wind indicator: yes
Segmented circle: no
Lights: FOR LIRL RY 08/26 PHONE 203-623-3826.

Airport Communications

WX ASOS at BDL (4 nm NW): 118.15 (860-386-3480)
WX ASOS at HFD (9 nm S): PHONE 860-527-5837
WX AWOS-AV at CT71 (14 nm SW): 129.825
WX ASOS at BAF (17 nm N): 127.1 (413-568-2267)

Nearby radio navigation aids

VOR radial/distance  VOR name  Freq  Var
HFDr002/15.2HARTFORD VOR/DME114.9013W
BAFr179/16.9BARNES VORTAC113.0014W
CTRr161/28.3CHESTER VOR/DME115.1013W
ORWr320/34.1NORWICH VOR/DME110.0014W
PUTr277/34.6PUTNAM VOR/DME117.4014W
MADr019/34.7MADISON VOR/DME110.4013W

Airport Services

Runway Information

Runway 8/26

Dimensions: 2000 x 50 ft. / 610 x 15 m
Surface: turf
Runway edge lights: low intensity
RUNWAY 8  RUNWAY 26
Traffic pattern: rightleft

Airport Ownership and Management from official FAA records

Ownership: Privately-owned
Owner: JOSEPH AND LINDA ROBERTS
140 SOUTH MAIN STREET
EAST WINDSOR, CT 06088
Phone 860-292-5093
Manager: JOSEPH AND LINDA ROBERTS
140 SOUTH MAIN STREET
EAST WINDSOR, CT 06088
Phone 860-292-5093

Airport Operational Statistics

Aircraft based on the field: 6
Single engine airplanes: 6
    

Additional Remarks

OWNER DESIRES CHARTING ON THE NEW YORK SECTIONAL CHART.
FOR CD CTC YANKEE APCH AT 860-386-3597

Instrument Procedures

There are no published instrument procedures at CT85.

Some nearby airports with instrument procedures:

KBDL - Bradley International Airport (4 nm NW)
KHFD - Hartford-Brainard Airport (9 nm S)
4B8 - Robertson Field Airport (16 nm SW)
KBAF - Westfield-Barnes Regional Airport (17 nm N)
KCEF - Westover Air Reserve Base/Metropolitan Airport (19 nm N)
 
Loc | Ops | Rwys | IFR | FBO | Links
Com | Nav | Svcs | Stats | Notes

Silver City Flying Club
 
Area around CT85 (Roberts Farm Airport)
 
Road maps at: MapQuest Bing Google
 
Aerial photo
No photo
 
Sectional chart

 
Airport distance calculator
Flying to Roberts Farm Airport? Find the distance to fly.

From to CT85

Sunrise and sunset
Times for 08-Dec-2022
 Local
(UTC-5)
 Zulu
(UTC)
Morning civil twilight06:3511:35
Sunrise07:0612:06
Sunset16:1821:18
Evening civil twilight16:5021:50

Current date and time
Zulu (UTC)  08-Dec-2022 17:47:42
Local (UTC-5)  08-Dec-2022 12:47:42
 
METAR
KBDL 
4nm NW 
081651Z 32013KT 10SM SCT040 BKN250 11/01 A3019 RMK AO2 SLP224 T01110011
KHFD 
10nm S 
081653Z 32009KT 10SM SCT037 SCT048 11/02 A3020 RMK AO2 SLP225 T01110022
KBAF 
17nm N 
081653Z 33012KT 10SM SCT040 SCT049 10/01 A3019 RMK AO2 SLP224 T01000011
KCEF 
19nm N 
081655Z 32010KT 10SM BKN042 BKN250 10/00 A3016 RMK AO2A SLP220 T01000003
TAF
KBDL 
4nm NW 
081444Z 0815/0918 34009KT P6SM FEW200 FM081600 33011G21KT P6SM FEW250 FM082200 34009KT P6SM FEW250
KBAF 
17nm N 
081120Z 0812/0912 33008KT P6SM FEW200 FM081500 33013G19KT P6SM BKN250 FM082200 34008KT P6SM SKC
KCEF 
19nm N 
081200Z 0812/0918 33009KT 9999 BKN040 600401 510103 QNH3015INS BECMG 0813/0814 33010G15KT 9999 SCT040 SCT250 510004 QNH3014INS TEMPO 0814/0820 36015G25KT BKN040 600401 520004 BECMG 0820/0821 36009KT 9999 FEW250 510103 QNH3016INS BECMG 0913/0914 01010G15KT 9999 SKC 510004 QNH3019INS TX09/0819Z TNM05/0912Z
NOTAMs
Click for the latest NOTAMs
NOTAMs are issued by the DoD/FAA and will open in a separate window not controlled by AirNav.

 

 
 

Would you like to see your business listed on this page?

 If your business provides an interesting product or service to pilots, flight crews, aircraft, or users of the Roberts Farm Airport, you should consider listing it here.  To start the listing process, click on the button below
 
Add a business
 

Other Pages about Roberts Farm Airport

Update a link
 
Copyright © AirNav, LLC. All rights reserved. Privacy Policy  Contact